Time;durP1;ratioP1;P1;durP2;ratioP2;P2;SDS_P1;SDS_P2;PMS_P1;PMS_P2;Temp;Humidity;BMP_temperature;BMP_pressure;BME280_temperature;BME280_humidity;BME280_pressure;Samples;Min_cycle;Max_cycle;Signal;HPM_P1;HPM_P2
2023/09/11 00:00:52;;;;;;;29.80;19.20;;;;;;;16.84;72.12;98709.92;436282;1254;108629;-42
2023/09/11 00:11:17;;;;;;;29.10;19.70;;;;;;;16.63;72.65;98699.02;436362;1263;99225;-43
2023/09/11 00:21:24;;;;;;;24.40;19.50;;;;;;;16.51;72.79;98692.95;436263;1253;111352;-42
2023/09/11 00:31:30;;;;;;;31.90;20.60;;;;;;;16.48;73.36;98684.73;435930;1263;518698;-43
2023/09/11 00:41:35;;;;;;;22.70;17.90;;;;;;;16.48;74.02;98680.73;436035;1254;99270;-43
2023/09/11 00:51:43;;;;;;;25.50;18.50;;;;;;;16.56;74.36;98671.73;436237;1261;108129;-42
2023/09/11 01:11:55;;;;;;;23.40;18.00;;;;;;;16.61;75.06;98660.94;436349;1255;111373;-42
2023/09/11 01:22:12;;;;;;;26.50;18.30;;;;;;;16.72;75.14;98672.86;436119;1254;108405;-42
2023/09/11 01:32:20;;;;;;;27.80;20.30;;;;;;;16.58;75.29;98669.16;437312;1248;99237;-41
2023/09/11 01:42:31;;;;;;;27.10;19.90;;;;;;;16.43;75.50;98673.21;436132;1252;108182;-42
2023/09/11 01:52:40;;;;;;;25.30;19.30;;;;;;;16.35;75.58;98670.12;436290;1254;99355;-42
2023/09/11 02:12:53;;;;;;;26.40;19.80;;;;;;;16.16;75.84;98669.08;436167;1248;107209;-42
2023/09/11 02:23:00;;;;;;;27.50;23.50;;;;;;;15.90;75.83;98654.78;436333;1253;98004;-42
2023/09/11 02:33:06;;;;;;;33.20;23.80;;;;;;;15.64;76.49;98649.00;436223;1253;108210;-42
2023/09/11 02:43:14;;;;;;;29.90;23.60;;;;;;;15.48;77.38;98649.73;436414;1253;99231;-42
2023/09/11 02:53:21;;;;;;;28.50;21.40;;;;;;;15.43;77.97;98650.14;436242;1254;111173;-41
2023/09/11 03:03:28;;;;;;;26.90;19.30;;;;;;;15.43;78.28;98646.09;436112;1248;108074;-42
2023/09/11 03:13:35;;;;;;;29.50;21.20;;;;;;;15.44;78.50;98644.86;436085;1253;99233;-43
2023/09/11 03:23:41;;;;;;;30.40;21.90;;;;;;;15.44;78.79;98635.75;436074;1252;108425;-42
2023/09/11 03:33:48;;;;;;;33.20;24.10;;;;;;;15.40;78.91;98637.98;436058;1253;99291;-41
2023/09/11 03:43:55;;;;;;;29.50;21.70;;;;;;;15.33;79.19;98630.84;436280;1252;111365;-42
2023/09/11 03:54:01;;;;;;;29.50;22.80;;;;;;;15.29;79.47;98629.34;436162;1254;106913;-42
2023/09/11 04:04:08;;;;;;;36.20;22.50;;;;;;;15.28;79.85;98618.79;436326;1248;98092;-42
2023/09/11 04:14:17;;;;;;;29.00;22.70;;;;;;;15.29;80.04;98610.95;436034;1253;108463;-42
2023/09/11 04:24:24;;;;;;;33.90;23.40;;;;;;;15.31;80.20;98606.43;436146;1253;99221;-42
2023/09/11 04:44:35;;;;;;;29.80;22.00;;;;;;;15.32;80.43;98599.94;436079;1250;108746;-42
2023/09/11 04:54:43;;;;;;;34.70;23.60;;;;;;;15.29;80.83;98591.83;436287;1251;99218;-43
2023/09/11 05:04:51;;;;;;;33.30;23.80;;;;;;;15.40;81.14;98594.05;436262;1252;107939;-43
2023/09/11 05:25:02;;;;;;;30.80;23.00;;;;;;;16.44;81.88;98597.25;436123;1250;111954;-42
2023/09/11 05:35:10;;;;;;;34.20;25.50;;;;;;;17.69;81.63;98591.47;436243;1248;109569;-42
2023/09/11 05:45:16;;;;;;;29.50;22.40;;;;;;;18.78;80.39;98592.61;436400;1252;99122;-44
2023/09/11 05:55:24;;;;;;;29.50;23.40;;;;;;;19.80;79.61;98596.33;436254;1248;107651;-43
2023/09/11 06:05:35;;;;;;;92.10;24.60;;;;;;;20.66;78.32;98596.67;436428;1248;98778;-41
2023/09/11 06:25:44;;;;;;;39.00;18.40;;;;;;;22.44;75.55;98594.52;436107;1247;108517;-41
2023/09/11 06:35:49;;;;;;;26.60;16.50;;;;;;;23.22;73.85;98595.21;436311;1250;99225;-41
2023/09/11 06:45:53;;;;;;;15.80;14.00;;;;;;;24.04;72.33;98593.05;436337;1253;108276;-43
2023/09/11 06:56:00;;;;;;;28.20;15.40;;;;;;;24.84;70.58;98597.66;436379;1253;99221;-40
2023/09/11 07:16:13;;;;;;;18.00;13.50;;;;;;;25.64;67.58;98603.86;436330;1253;106796;-41
2023/09/11 07:26:21;;;;;;;18.80;13.50;;;;;;;25.82;66.17;98604.02;436384;1247;99253;-42
2023/09/11 07:36:29;;;;;;;21.80;14.50;;;;;;;25.89;65.54;98600.16;436314;1254;107745;-42
2023/09/11 07:46:35;;;;;;;19.60;13.70;;;;;;;25.94;64.88;98595.56;436420;1248;99224;-42
2023/09/11 07:56:42;;;;;;;18.90;13.50;;;;;;;26.00;64.21;98592.20;436466;1250;110940;-42
2023/09/11 08:06:49;;;;;;;16.10;12.70;;;;;;;26.12;63.46;98589.92;436576;1248;109348;-41
2023/09/11 08:27:03;;;;;;;14.50;12.00;;;;;;;27.04;62.33;98582.31;436703;1250;107775;-42
2023/09/11 08:37:10;;;;;;;12.70;10.30;;;;;;;27.43;61.83;98578.89;436493;1248;99771;-42
2023/09/11 09:07:28;;;;;;;10.00;8.50;;;;;;;28.37;58.35;98584.79;436819;1251;99210;-41
2023/09/11 09:17:35;;;;;;;41.60;10.10;;;;;;;28.51;56.15;98580.59;436822;1248;107872;-42
2023/09/11 09:27:44;;;;;;;11.60;7.50;;;;;;;28.67;55.21;98578.11;436903;1247;99240;-43
2023/09/11 09:37:50;;;;;;;10.10;7.50;;;;;;;29.07;54.42;98575.39;436961;1253;111014;-42
2023/09/11 09:48:04;;;;;;;11.10;7.40;;;;;;;29.33;53.11;98569.85;436713;1253;108043;-42
2023/09/11 09:58:14;;;;;;;7.50;6.50;;;;;;;29.41;52.01;98564.44;436859;1253;97983;-43
2023/09/11 10:08:20;;;;;;;8.80;6.10;;;;;;;29.64;50.94;98557.70;436671;1253;108019;-42
2023/09/11 10:18:30;;;;;;;7.50;6.80;;;;;;;29.53;49.82;98545.41;436761;1248;99244;-42
2023/09/11 10:38:51;;;;;;;8.30;6.20;;;;;;;29.72;49.29;98530.45;436738;1248;107179;-42
2023/09/11 10:48:55;;;;;;;8.80;6.90;;;;;;;29.88;48.44;98516.46;436688;1251;98062;-42
2023/09/11 11:09:23;;;;;;;;;;;;;;;29.99;47.83;98507.17;436594;1252;99220;-42
2023/09/11 11:19:39;;;;;;;8.30;6.90;;;;;;;29.79;47.03;98498.52;436475;1248;111415;-42
2023/09/11 11:29:45;;;;;;;9.40;8.20;;;;;;;29.32;46.50;98505.02;436464;1260;107062;-41
2023/09/11 11:39:52;;;;;;;10.20;8.90;;;;;;;28.87;46.70;98501.27;436378;1252;99205;-41
2023/09/11 12:20:21;;;;;;;10.70;8.20;;;;;;;29.03;45.02;98482.97;436218;1251;108572;-42
2023/09/11 12:40:35;;;;;;;20.40;8.40;;;;;;;28.89;44.49;98480.48;436395;1253;108649;-41
2023/09/11 12:50:41;;;;;;;14.50;8.80;;;;;;;28.83;44.31;98480.30;436799;1251;97995;-41
2023/09/11 13:10:54;;;;;;;9.30;8.20;;;;;;;28.73;44.25;98459.41;436488;1248;108777;-42
2023/09/11 13:21:01;;;;;;;9.40;8.40;;;;;;;28.64;43.76;98453.30;436234;1253;99236;-41
2023/09/11 13:31:05;;;;;;;;;;;;;;;28.51;44.05;98453.42;436296;1252;107340;-42
2023/09/11 13:51:20;;;;;;;9.70;8.70;;;;;;;28.09;44.50;98448.64;436343;1253;112096;-42
2023/09/11 14:01:27;;;;;;;11.40;8.10;;;;;;;28.04;44.81;98441.52;436547;1248;108380;-41
2023/09/11 14:11:33;;;;;;;8.70;7.90;;;;;;;28.03;44.32;98429.61;436285;1251;99218;-42
2023/09/11 14:21:40;;;;;;;9.40;8.40;;;;;;;27.96;44.26;98428.13;436441;1253;108278;-41
2023/09/11 14:31:44;;;;;;;12.70;8.80;;;;;;;27.94;44.23;98421.56;436356;1248;99269;-40
2023/09/11 14:51:56;;;;;;;10.50;9.50;;;;;;;27.83;44.79;98409.78;436274;1248;109147;-42
2023/09/11 15:02:03;;;;;;;9.60;8.70;;;;;;;27.80;44.68;98406.97;436281;1253;101493;-40
2023/09/11 15:12:10;;;;;;;13.40;10.10;;;;;;;27.66;44.82;98403.67;436319;1251;109427;-41
2023/09/11 15:22:18;;;;;;;11.20;7.80;;;;;;;27.51;44.92;98398.90;436595;1248;97979;-41
2023/09/11 15:32:24;;;;;;;10.10;8.00;;;;;;;27.37;45.06;98400.52;436367;1253;111983;-42
2023/09/11 15:42:32;;;;;;;12.50;9.70;;;;;;;27.18;45.34;98398.98;436338;1253;108868;-40
2023/09/11 15:52:38;;;;;;;13.60;10.60;;;;;;;26.98;45.54;98396.90;436350;1253;99194;-42
2023/09/11 16:02:45;;;;;;;12.70;10.30;;;;;;;26.79;45.95;98393.15;436263;1253;108740;-41
2023/09/11 16:33:04;;;;;;;40.50;11.10;;;;;;;25.96;47.05;98390.20;436337;1247;107856;-41
2023/09/11 16:43:12;;;;;;;23.60;9.50;;;;;;;25.58;47.97;98386.16;436487;1248;99214;-40
2023/09/11 17:03:24;;;;;;;19.10;12.20;;;;;;;24.41;50.18;98380.81;436491;1253;97985;-40
2023/09/11 17:13:31;;;;;;;;;;;;;;;23.85;51.23;98385.34;436511;1252;113746;-43
2023/09/11 17:23:38;;;;;;;29.30;13.60;;;;;;;23.26;52.19;98387.06;436401;1253;108594;-41
2023/09/11 17:33:45;;;;;;;23.30;13.50;;;;;;;22.78;53.40;98391.95;436432;1252;99235;-41
2023/09/11 17:43:52;;;;;;;14.00;12.50;;;;;;;22.41;54.36;98398.61;436159;1261;107289;-42
2023/09/11 17:54:00;;;;;;;21.90;13.50;;;;;;;22.08;55.24;98404.99;436203;1261;99234;-41
2023/09/11 18:14:11;;;;;;;16.90;13.30;;;;;;;21.38;56.68;98407.81;437109;1247;107388;-43
2023/09/11 18:24:18;;;;;;;15.60;12.70;;;;;;;21.03;57.48;98406.77;437119;1254;99218;-42
2023/09/11 18:34:27;;;;;;;18.70;13.30;;;;;;;20.77;58.08;98402.92;436739;1252;108595;-42
2023/09/11 18:44:35;;;;;;;17.00;13.30;;;;;;;20.57;58.96;98412.85;438622;1254;99211;-41
2023/09/11 18:54:43;;;;;;;22.20;16.30;;;;;;;20.42;59.55;98411.27;437914;1253;111292;-41
2023/09/11 19:04:50;;;;;;;18.90;16.60;;;;;;;20.27;60.04;98410.02;436902;1261;108374;-40
2023/09/11 19:14:57;;;;;;;25.00;15.80;;;;;;;20.23;60.54;98409.63;436303;1254;99304;-41
2023/09/11 19:25:06;;;;;;;30.50;21.20;;;;;;;19.92;61.18;98415.61;436355;1252;108318;-41
2023/09/11 19:35:13;;;;;;;46.90;23.60;;;;;;;19.60;61.72;98413.04;436247;1248;97983;-42
2023/09/11 19:45:20;;;;;;;30.80;22.00;;;;;;;19.51;62.75;98410.66;437411;1261;111903;-41
2023/09/11 19:55:26;;;;;;;32.30;22.70;;;;;;;19.38;63.17;98406.02;436508;1261;108298;-42
2023/09/11 20:05:33;;;;;;;32.10;25.30;;;;;;;19.28;63.77;98407.84;436334;1254;97975;-40
2023/09/11 20:15:41;;;;;;;39.40;28.40;;;;;;;19.16;64.43;98407.23;436220;1247;108584;-42
2023/09/11 20:35:54;;;;;;;37.40;27.50;;;;;;;19.05;65.06;98408.66;436180;1255;111796;-42
2023/09/11 20:46:00;;;;;;;42.50;30.40;;;;;;;18.97;65.95;98404.83;436131;1252;107747;-41
2023/09/11 20:56:05;;;;;;;42.60;28.00;;;;;;;18.85;66.45;98413.11;436100;1248;99231;-41
2023/09/11 21:06:14;;;;;;;46.00;28.10;;;;;;;18.49;66.59;98415.54;436284;1254;108050;-40
2023/09/11 21:36:33;;;;;;;35.60;25.00;;;;;;;18.16;68.47;98408.09;436207;1261;107668;-42
2023/09/11 21:46:40;;;;;;;36.80;26.90;;;;;;;18.19;68.83;98407.95;436382;1247;99393;-43
2023/09/11 21:56:48;;;;;;;49.80;28.40;;;;;;;18.27;69.04;98406.02;436110;1261;107765;-42
2023/09/11 22:06:52;;;;;;;34.80;24.20;;;;;;;18.18;69.02;98407.48;436198;1247;99266;-41
2023/09/11 22:16:59;;;;;;;36.80;28.20;;;;;;;18.17;69.42;98401.81;436327;1248;111612;-41
2023/09/11 22:27:04;;;;;;;39.10;27.00;;;;;;;18.06;69.61;98398.89;436252;1248;109842;-42
2023/09/11 22:37:28;;;;;;;36.60;26.80;;;;;;;17.87;69.90;98398.43;436045;1269;99354;-41
2023/09/11 22:47:35;;;;;;;37.60;25.50;;;;;;;17.84;70.31;98399.71;436301;1251;110296;-43
2023/09/11 23:07:48;;;;;;;32.00;24.10;;;;;;;17.83;70.62;98400.94;436224;1253;111248;-41
2023/09/11 23:17:54;;;;;;;32.00;22.30;;;;;;;17.82;70.64;98396.52;436027;1253;108230;-41
2023/09/11 23:28:01;;;;;;;26.50;22.00;;;;;;;17.72;70.59;98390.50;436414;1247;99215;-41
2023/09/11 23:38:06;;;;;;;34.60;24.20;;;;;;;17.61;70.77;98387.96;436161;1248;108300;-43
2023/09/11 23:48:14;;;;;;;30.40;26.20;;;;;;;17.41;70.47;98380.26;436007;1252;99224;-42
2023/09/11 23:58:21;;;;;;;41.00;27.80;;;;;;;17.16;70.96;98379.70;436218;1248;111731;-42
